createdAt,value
2018-02-04T00:00:00.192Z,20.65
2018-02-04T00:00:23.794Z,19.83
2018-02-04T00:00:47.253Z,19.58
2018-02-04T00:01:10.991Z,20.02
2018-02-04T00:01:34.762Z,20.45
2018-02-04T00:01:58.799Z,19.90
2018-02-04T00:02:22.844Z,20.70
2018-02-04T00:02:46.618Z,21.05
2018-02-04T00:03:09.992Z,20.15
2018-02-04T00:03:33.920Z,19.98
2018-02-04T00:03:57.696Z,19.90
2018-02-04T00:04:21.147Z,19.63
2018-02-04T00:04:44.912Z,20.85
2018-02-04T00:05:08.710Z,21.48
2018-02-04T00:05:32.514Z,20.60
2018-02-04T00:05:56.576Z,21.00
2018-02-04T00:06:20.442Z,20.83
2018-02-04T00:06:44.496Z,20.60
2018-02-04T00:07:08.265Z,20.40
2018-02-04T00:07:31.713Z,20.25
2018-02-04T00:07:55.522Z,20.37
2018-02-04T00:08:19.274Z,20.85
2018-02-04T00:08:43.296Z,21.70
2018-02-04T00:09:07.367Z,21.98
2018-02-04T00:09:31.102Z,21.17
2018-02-04T00:09:54.586Z,20.45
2018-02-04T00:10:18.333Z,21.08
2018-02-04T00:10:42.109Z,21.73
2018-02-04T00:11:06.143Z,21.25
2018-02-04T00:11:29.896Z,19.50
2018-02-04T00:11:53.409Z,18.70
2018-02-04T00:12:17.158Z,20.10
2018-02-04T00:12:40.949Z,21.10
2018-02-04T00:13:05.056Z,20.52
2018-02-04T00:13:28.828Z,20.00
2018-02-04T00:13:52.861Z,20.50
2018-02-04T00:14:16.958Z,20.62
2018-02-04T00:14:40.715Z,21.62
2018-02-04T00:15:04.747Z,22.67
2018-02-04T00:15:28.963Z,23.17
2018-02-04T00:15:52.728Z,20.73
2018-02-04T00:16:16.171Z,19.77
2018-02-04T00:16:39.904Z,19.70
2018-02-04T00:17:03.646Z,20.92
2018-02-04T00:17:27.478Z,20.23
2018-02-04T00:17:50.817Z,20.80
2018-02-04T00:18:14.587Z,20.98
2018-02-04T00:18:38.028Z,20.92
2018-02-04T00:19:01.829Z,21.30
2018-02-04T00:19:25.645Z,20.48
2018-02-04T00:19:49.391Z,20.45
2018-02-04T00:20:13.145Z,20.95
2018-02-04T00:20:36.606Z,21.40
2018-02-04T00:21:00.374Z,21.87
2018-02-04T00:21:24.127Z,20.52
2018-02-04T00:21:48.186Z,19.92
2018-02-04T00:22:11.528Z,19.92
2018-02-04T00:22:39.404Z,20.00
2018-02-04T00:23:03.169Z,21.10
2018-02-04T00:23:26.990Z,21.17
2018-02-04T00:23:51.010Z,20.48
2018-02-04T00:24:15.027Z,20.92
2018-02-04T00:24:38.800Z,21.37
2018-02-04T00:25:02.662Z,20.98
2018-02-04T00:25:26.404Z,19.85
2018-02-04T00:25:50.167Z,20.17
2018-02-04T00:26:13.927Z,21.33
2018-02-04T00:26:37.704Z,20.60
2018-02-04T00:27:01.725Z,19.92
2018-02-04T00:27:25.868Z,20.60
2018-02-04T00:27:49.631Z,21.40
2018-02-04T00:28:13.720Z,21.10
2018-02-04T00:28:37.528Z,21.37
2018-02-04T00:29:01.629Z,21.70
2018-02-04T00:29:25.379Z,22.15
2018-02-04T00:29:48.836Z,21.62
2018-02-04T00:30:12.587Z,20.45
2018-02-04T00:30:35.983Z,20.50
2018-02-04T00:30:59.737Z,20.37
2018-02-04T00:31:23.460Z,21.30
2018-02-04T00:31:47.243Z,20.88
2018-02-04T00:32:11.115Z,20.45
2018-02-04T00:32:34.850Z,20.80
2018-02-04T00:32:58.625Z,21.75
2018-02-04T00:33:22.464Z,22.17
2018-02-04T00:33:46.226Z,21.60
2018-02-04T00:34:10.002Z,20.80
2018-02-04T00:34:33.451Z,20.12
2018-02-04T00:34:57.193Z,19.60
2018-02-04T00:35:20.944Z,19.62
2018-02-04T00:35:44.467Z,19.58
2018-02-04T00:36:08.255Z,19.45
2018-02-04T00:36:32.181Z,19.42
2018-02-04T00:36:55.934Z,19.48
2018-02-04T00:37:20.031Z,18.80
2018-02-04T00:37:43.766Z,18.75
2018-02-04T00:38:07.039Z,19.12
2018-02-04T00:38:30.780Z,18.60
2018-02-04T00:38:54.910Z,18.65
2018-02-04T00:39:18.664Z,18.80
2018-02-04T00:39:42.735Z,18.77
2018-02-04T00:40:06.740Z,17.98
2018-02-04T00:40:30.532Z,16.90
2018-02-04T00:40:54.036Z,16.10
2018-02-04T00:41:17.823Z,16.75
2018-02-04T00:41:41.573Z,17.00
2018-02-04T00:42:05.631Z,18.20
2018-02-04T00:42:29.399Z,17.75
2018-02-04T00:42:53.314Z,17.80
2018-02-04T00:43:16.875Z,18.52
2018-02-04T00:43:40.606Z,18.27
2018-02-04T00:44:04.411Z,18.52
2018-02-04T00:44:28.164Z,18.67
2018-02-04T00:44:51.653Z,18.80
2018-02-04T00:45:15.447Z,19.27
2018-02-04T00:45:38.535Z,18.90
2018-02-04T00:46:02.310Z,19.02
2018-02-04T00:46:26.124Z,19.00
2018-02-04T00:46:50.174Z,19.35
2018-02-04T00:47:13.992Z,18.42
2018-02-04T00:47:38.003Z,18.37
2018-02-04T00:48:02.040Z,19.10
2018-02-04T00:48:25.496Z,19.67
2018-02-04T00:48:49.260Z,19.58
2018-02-04T00:49:13.071Z,19.20
2018-02-04T00:49:36.807Z,19.27
2018-02-04T00:50:00.831Z,18.80
2018-02-04T00:50:24.866Z,18.80
2018-02-04T00:50:48.600Z,19.65
2018-02-04T00:51:12.323Z,20.00
2018-02-04T00:51:36.125Z,19.33
2018-02-04T00:51:59.871Z,19.42
2018-02-04T00:52:23.620Z,19.52
2018-02-04T00:52:47.660Z,19.42
2018-02-04T00:53:11.495Z,18.33
2018-02-04T00:53:35.567Z,18.10
2018-02-04T00:53:59.032Z,18.63
2018-02-04T00:54:22.793Z,19.92
2018-02-04T00:54:46.570Z,19.40
2018-02-04T00:55:10.355Z,19.40
2018-02-04T00:55:34.399Z,18.40
2018-02-04T00:55:58.217Z,17.02
2018-02-04T00:56:21.699Z,17.02
2018-02-04T00:56:45.443Z,17.48
2018-02-04T00:57:09.199Z,18.70
2018-02-04T00:57:33.205Z,18.37
2018-02-04T00:57:57.228Z,17.90
2018-02-04T00:58:20.793Z,18.55
2018-02-04T00:58:44.519Z,18.98
2018-02-04T00:59:08.077Z,19.10
2018-02-04T00:59:31.536Z,18.83
2018-02-04T00:59:55.264Z,17.70
2018-02-04T01:00:19.036Z,16.87
2018-02-04T01:00:42.816Z,16.73
2018-02-04T01:01:06.832Z,16.80
2018-02-04T01:01:30.955Z,17.17
2018-02-04T01:01:54.707Z,17.20
2018-02-04T01:02:18.744Z,17.10
2018-02-04T01:02:42.777Z,17.12
2018-02-04T01:03:06.507Z,17.55
2018-02-04T01:03:30.241Z,18.62
2018-02-04T01:03:54.056Z,18.48
2018-02-04T01:04:17.793Z,18.27
2018-02-04T01:04:41.601Z,17.70
2018-02-04T01:05:05.188Z,16.08
2018-02-04T01:05:28.955Z,15.40
2018-02-04T01:05:52.687Z,16.00
2018-02-04T01:06:16.424Z,16.05
2018-02-04T01:06:40.483Z,15.60
2018-02-04T01:07:04.235Z,16.17
2018-02-04T01:07:27.747Z,16.30
2018-02-04T01:07:51.489Z,16.10
2018-02-04T01:08:15.228Z,15.93
2018-02-04T01:08:39.233Z,16.27
2018-02-04T01:09:03.075Z,16.58
2018-02-04T01:09:26.561Z,16.70
2018-02-04T01:09:50.346Z,16.50
2018-02-04T01:10:14.137Z,16.10
2018-02-04T01:10:37.404Z,15.60
2018-02-04T01:11:00.966Z,15.73
2018-02-04T01:11:25.042Z,16.10
2018-02-04T01:11:48.871Z,16.85
2018-02-04T01:12:12.323Z,16.20
2018-02-04T01:12:36.126Z,15.60
2018-02-04T01:12:59.172Z,15.85
2018-02-04T01:13:22.912Z,16.70
2018-02-04T01:13:46.688Z,16.73
2018-02-04T01:14:09.504Z,16.62
2018-02-04T01:14:33.232Z,16.37
2018-02-04T01:14:57.013Z,15.90
2018-02-04T01:15:20.772Z,15.20
2018-02-04T01:15:44.634Z,15.55
2018-02-04T01:16:08.291Z,15.98
2018-02-04T01:16:32.044Z,16.60
2018-02-04T01:16:55.767Z,16.20
2018-02-04T01:17:19.507Z,16.67
2018-02-04T01:17:43.559Z,16.65
2018-02-04T01:18:07.377Z,17.17
2018-02-04T01:18:31.380Z,17.02
2018-02-04T01:18:55.506Z,16.90
2018-02-04T01:19:19.313Z,17.27
2018-02-04T01:19:43.331Z,17.00
2018-02-04T01:20:06.154Z,16.93
2018-02-04T01:20:29.605Z,16.60
2018-02-04T01:20:53.341Z,16.10
2018-02-04T01:21:17.171Z,16.20
2018-02-04T01:21:41.193Z,15.23
2018-02-04T01:22:04.948Z,15.60
2018-02-04T01:22:28.971Z,15.86
2018-02-04T01:22:53.018Z,16.33
2018-02-04T01:23:16.682Z,16.58
2018-02-04T01:23:40.486Z,16.70
2018-02-04T01:24:04.224Z,16.90
2018-02-04T01:24:28.045Z,16.80
2018-02-04T01:24:51.802Z,17.05
2018-02-04T01:25:15.847Z,16.50
2018-02-04T01:25:39.855Z,16.10
2018-02-04T01:26:03.683Z,15.60
2018-02-04T01:26:27.704Z,15.32
2018-02-04T01:26:51.727Z,15.60
2018-02-04T01:27:15.472Z,15.80
2018-02-04T01:27:39.259Z,16.20
2018-02-04T01:28:02.799Z,16.65
2018-02-04T01:28:26.537Z,16.27
2018-02-04T01:28:50.619Z,15.80
2018-02-04T01:29:14.455Z,15.80
2018-02-04T01:29:38.524Z,15.90
2018-02-04T01:30:02.339Z,15.80
2018-02-04T01:30:26.440Z,16.10
2018-02-04T01:30:50.237Z,16.08
2018-02-04T01:31:14.322Z,16.10
2018-02-04T01:31:38.099Z,16.65
2018-02-04T01:32:01.537Z,16.87
2018-02-04T01:32:25.323Z,17.23
2018-02-04T01:32:49.071Z,16.10
2018-02-04T01:33:13.112Z,16.48
2018-02-04T01:33:37.135Z,16.45
2018-02-04T01:34:00.878Z,16.20
2018-02-04T01:34:24.319Z,15.77
2018-02-04T01:34:48.051Z,16.17
2018-02-04T01:35:11.832Z,15.77
2018-02-04T01:35:35.902Z,16.15
2018-02-04T02:19:48.096Z,17.62
2018-02-04T02:20:11.908Z,18.00
2018-02-04T02:20:35.671Z,18.27
2018-02-04T02:20:59.473Z,19.40
2018-02-04T02:21:23.492Z,19.87
2018-02-04T02:21:47.523Z,18.85
2018-02-04T02:22:11.085Z,18.10
2018-02-04T02:22:34.191Z,18.50
2018-02-04T02:22:57.931Z,18.80
2018-02-04T02:23:21.716Z,18.23
2018-02-04T02:23:45.449Z,17.90
2018-02-04T02:24:09.185Z,17.52
2018-02-04T02:24:32.747Z,17.50
2018-02-04T02:24:56.520Z,18.12
2018-02-04T02:25:20.295Z,18.25
2018-02-04T02:25:44.113Z,17.98
2018-02-04T02:26:08.137Z,17.80
2018-02-04T02:26:31.880Z,18.65
2018-02-04T02:26:55.331Z,19.70
2018-02-04T02:27:19.141Z,19.60
2018-02-04T02:27:42.897Z,19.37
2018-02-04T02:28:06.955Z,19.17
2018-02-04T02:28:30.711Z,19.00
2018-02-04T02:28:54.170Z,18.75
2018-02-04T02:29:17.899Z,18.60
2018-02-04T02:29:41.635Z,18.70
2018-02-04T02:30:05.712Z,18.80
2018-02-04T02:30:29.469Z,18.12
2018-02-04T02:30:53.190Z,18.55
2018-02-04T02:31:16.985Z,19.50
2018-02-04T02:31:40.765Z,19.15
2018-02-04T02:32:04.561Z,18.17
2018-02-04T02:32:28.315Z,18.27
2018-02-04T02:32:51.810Z,18.58
2018-02-04T02:33:15.539Z,18.70
2018-02-04T02:33:39.289Z,19.17
2018-02-04T02:34:03.307Z,18.67
2018-02-04T02:34:26.756Z,18.20
2018-02-04T02:34:50.493Z,18.80
2018-02-04T02:35:14.284Z,19.40
2018-02-04T02:35:38.070Z,19.90
2018-02-04T02:36:01.421Z,19.55
2018-02-04T02:36:25.187Z,18.87
2018-02-04T02:36:48.955Z,19.67
2018-02-04T02:37:13.002Z,19.75
2018-02-04T02:37:36.743Z,20.00
2018-02-04T02:38:00.462Z,19.80
2018-02-04T02:38:24.210Z,20.55
2018-02-04T02:38:47.980Z,20.50
2018-02-04T02:39:11.782Z,20.48
2018-02-04T02:39:35.797Z,19.98
2018-02-04T02:39:59.539Z,20.62
2018-02-04T02:40:22.995Z,21.10
2018-02-04T02:40:46.804Z,21.42
2018-02-04T02:41:10.589Z,20.65
2018-02-04T02:41:34.618Z,20.33
2018-02-04T02:41:57.704Z,21.95
2018-02-04T02:42:21.449Z,23.23
2018-02-04T02:42:45.503Z,23.55
2018-02-04T02:43:09.346Z,23.90
2018-02-04T02:43:33.376Z,23.40
2018-02-04T02:43:56.827Z,21.90
2018-02-04T02:44:20.557Z,21.65
2018-02-04T02:44:44.279Z,21.60
2018-02-04T02:45:08.086Z,22.45
2018-02-04T02:45:32.141Z,22.90
2018-02-04T02:45:56.169Z,23.27
2018-02-04T02:46:19.611Z,22.23
2018-02-04T02:46:43.371Z,22.55
2018-02-04T02:47:06.479Z,23.30
2018-02-04T02:47:30.259Z,23.58
2018-02-04T02:47:54.067Z,23.55
2018-02-04T02:48:17.799Z,23.00
2018-02-04T02:48:41.257Z,22.52
2018-02-04T02:49:04.997Z,22.17
2018-02-04T02:49:28.742Z,22.45
2018-02-04T02:49:52.798Z,23.52
2018-02-04T02:50:16.643Z,23.25
2018-02-04T02:50:40.737Z,23.15
2018-02-04T02:51:04.511Z,23.42
2018-02-04T02:51:27.989Z,24.77
2018-02-04T02:51:51.756Z,25.30
2018-02-04T02:52:15.313Z,24.42
2018-02-04T02:52:38.396Z,23.70
2018-02-04T02:53:02.278Z,23.73
2018-02-04T02:53:26.012Z,24.15
2018-02-04T02:53:49.753Z,23.42
2018-02-04T02:54:13.569Z,22.85
2018-02-04T02:54:37.339Z,23.85
2018-02-04T02:55:00.820Z,24.57
2018-02-04T02:55:24.584Z,24.60
2018-02-04T02:55:48.351Z,24.27
2018-02-04T02:56:11.974Z,24.08
2018-02-04T02:56:36.667Z,24.73
2018-02-04T02:57:00.469Z,24.57
2018-02-04T02:57:24.221Z,24.05
2018-02-04T02:57:47.993Z,23.00
2018-02-04T02:58:12.028Z,23.10
2018-02-04T02:58:35.794Z,24.30
2018-02-04T02:58:59.244Z,25.10
2018-02-04T02:59:22.977Z,24.60
2018-02-04T02:59:46.719Z,24.60
2018-02-04T03:00:10.751Z,24.42
2018-02-04T03:00:34.783Z,23.83
2018-02-04T03:00:58.608Z,22.83
2018-02-04T03:01:22.067Z,23.27
2018-02-04T03:01:45.913Z,23.67
2018-02-04T03:02:08.971Z,23.52
2018-02-04T03:02:32.707Z,22.90
2018-02-04T03:02:56.468Z,23.30
2018-02-04T03:03:20.504Z,23.20
2018-02-04T03:03:44.533Z,22.85
2018-02-04T03:04:08.324Z,23.10
2018-02-04T03:04:32.356Z,22.62
2018-02-04T03:04:56.439Z,22.55
2018-02-04T03:05:20.199Z,22.73
2018-02-04T03:05:43.685Z,23.55
2018-02-04T03:06:07.537Z,23.30
2018-02-04T03:06:31.279Z,22.52
2018-02-04T03:06:55.053Z,22.73
2018-02-04T03:07:19.123Z,22.95
2018-02-04T03:07:43.163Z,23.67
2018-02-04T03:08:06.903Z,23.65
2018-02-04T03:08:30.416Z,23.48
2018-02-04T03:08:54.219Z,22.30
2018-02-04T03:09:17.771Z,22.20
2018-02-04T03:09:41.252Z,22.25
2018-02-04T03:10:04.323Z,22.17
2018-02-04T03:10:28.111Z,23.02
2018-02-04T03:10:51.889Z,22.48
2018-02-04T03:11:15.665Z,21.27
2018-02-04T03:11:39.679Z,19.83
2018-02-04T03:12:03.795Z,19.23
2018-02-04T03:12:27.546Z,20.40
2018-02-04T03:12:51.627Z,21.12
2018-02-04T03:13:15.424Z,21.33
2018-02-04T03:13:38.880Z,21.83
2018-02-04T03:14:02.624Z,22.20
2018-02-04T03:14:26.375Z,21.40
2018-02-04T03:14:50.396Z,20.30
2018-02-04T03:15:14.441Z,20.62
2018-02-04T03:15:38.222Z,21.27
2018-02-04T03:16:02.242Z,20.48
2018-02-04T03:16:26.357Z,20.58
2018-02-04T03:16:50.103Z,20.33
2018-02-04T03:17:13.552Z,21.02
2018-02-04T03:17:37.342Z,21.48
2018-02-04T03:18:01.134Z,21.30
2018-02-04T03:18:24.950Z,20.50
2018-02-04T03:18:48.409Z,20.45
2018-02-04T03:19:12.180Z,20.62
2018-02-04T03:19:35.927Z,20.85
2018-02-04T03:20:00.164Z,21.25
2018-02-04T03:20:23.901Z,20.98
2018-02-04T03:20:47.640Z,21.75
2018-02-04T03:21:11.139Z,21.80
2018-02-04T03:21:34.924Z,22.17
2018-02-04T03:21:58.672Z,20.65
2018-02-04T03:22:22.723Z,20.37
2018-02-04T03:22:46.465Z,20.50
2018-02-04T03:23:10.009Z,20.48
2018-02-04T03:23:33.766Z,20.35
2018-02-04T03:23:57.573Z,20.30
2018-02-04T03:24:21.315Z,19.55
2018-02-04T03:24:44.763Z,18.77
2018-02-04T03:25:08.321Z,19.48
2018-02-04T03:25:32.399Z,19.87
2018-02-04T03:25:56.136Z,20.25
2018-02-04T03:26:19.865Z,19.80
2018-02-04T03:26:43.627Z,19.37
2018-02-04T03:27:07.411Z,18.85
2018-02-04T03:27:31.228Z,18.50
2018-02-04T03:27:55.016Z,19.30
2018-02-04T03:28:19.372Z,18.75
2018-02-04T03:28:43.164Z,19.48
2018-02-04T03:29:06.983Z,19.30
2018-02-04T03:29:31.007Z,19.10
2018-02-04T03:29:54.647Z,18.70
2018-02-04T03:30:18.403Z,18.70
2018-02-04T03:30:42.148Z,18.67
2018-02-04T03:31:05.890Z,18.55
2018-02-04T03:31:29.637Z,18.65
2018-02-04T03:31:53.118Z,18.30
2018-02-04T03:32:17.026Z,19.20
2018-02-04T03:32:40.782Z,18.92
2018-02-04T03:33:04.355Z,19.15
2018-02-04T03:33:28.216Z,19.70
2018-02-04T03:33:51.747Z,19.73
2018-02-04T03:34:15.476Z,19.48
2018-02-04T03:34:39.235Z,19.20
2018-02-04T03:35:02.720Z,18.48
2018-02-04T03:35:26.464Z,17.83
2018-02-04T03:35:50.236Z,17.75
2018-02-04T03:36:14.253Z,18.23
2018-02-04T03:36:38.048Z,18.62
2018-02-04T03:37:01.590Z,18.58
2018-02-04T03:37:25.358Z,19.12
2018-02-04T03:37:49.258Z,18.50
2018-02-04T03:38:12.991Z,19.12
2018-02-04T03:38:37.084Z,19.30
2018-02-04T03:39:00.891Z,19.52
2018-02-04T03:39:24.955Z,18.50
2018-02-04T03:39:48.718Z,17.87
2018-02-04T03:40:12.169Z,17.17
2018-02-04T03:40:35.901Z,16.98
2018-02-04T03:40:59.649Z,17.10
2018-02-04T03:41:23.665Z,18.10
2018-02-04T03:41:47.731Z,18.73
2018-02-04T03:42:11.488Z,18.52
2018-02-04T03:42:34.947Z,18.30
2018-02-04T03:42:58.682Z,17.87
2018-02-04T03:43:22.427Z,16.80
2018-02-04T03:43:46.440Z,16.45
2018-02-04T03:44:10.477Z,16.17
2018-02-04T03:44:34.587Z,16.48
2018-02-04T03:44:58.320Z,17.58
2018-02-04T03:45:22.363Z,18.10
2018-02-04T03:45:46.110Z,17.95
2018-02-04T03:46:09.625Z,17.58
2018-02-04T03:46:33.347Z,17.50
2018-02-04T03:46:57.095Z,17.48
2018-02-04T03:47:21.155Z,16.90
2018-02-04T03:47:44.534Z,16.77
2018-02-04T03:48:08.332Z,15.73
2018-02-04T03:48:32.111Z,14.55
2018-02-04T03:48:55.887Z,14.90
2018-02-04T03:49:20.004Z,15.05
2018-02-04T03:49:43.760Z,14.27
2018-02-04T03:50:07.803Z,13.77
2018-02-04T03:50:31.822Z,13.80
2018-02-04T03:50:55.645Z,14.75
2018-02-04T03:51:19.696Z,14.73
2018-02-04T03:51:43.146Z,14.37
2018-02-04T03:52:06.887Z,13.77
2018-02-04T03:52:30.709Z,14.23
2018-02-04T03:52:54.491Z,14.27
2018-02-04T03:53:18.563Z,13.27
2018-02-04T03:53:42.324Z,13.18
2018-02-04T03:54:05.815Z,12.75
2018-02-04T03:54:29.564Z,12.98
2018-02-04T03:54:53.305Z,12.95
2018-02-04T03:55:17.331Z,13.20
2018-02-04T03:55:41.091Z,12.52
2018-02-04T03:56:04.583Z,12.70
2018-02-04T03:56:28.311Z,12.18
2018-02-04T03:56:52.063Z,11.68
2018-02-04T03:57:16.123Z,11.18
2018-02-04T03:57:40.122Z,11.93
2018-02-04T03:58:03.872Z,12.18
2018-02-04T03:58:27.432Z,12.07
2018-02-04T03:58:50.922Z,11.45
2018-02-04T03:59:14.948Z,11.80
2018-02-04T03:59:38.403Z,11.63
2018-02-04T04:00:02.220Z,11.70
2018-02-04T04:00:26.012Z,12.10
2018-02-04T04:00:49.059Z,12.00
2018-02-04T04:01:12.791Z,12.10
2018-02-04T04:01:36.573Z,11.63
2018-02-04T04:02:00.018Z,11.45
2018-02-04T04:02:23.890Z,11.80
2018-02-04T04:02:47.672Z,12.30
2018-02-04T04:03:11.319Z,12.00
2018-02-04T04:03:34.907Z,11.38
2018-02-04T04:03:58.663Z,11.50
2018-02-04T04:04:22.460Z,12.00
2018-02-04T04:04:45.985Z,12.13
2018-02-04T04:05:09.757Z,11.40
2018-02-04T04:05:33.486Z,11.52
2018-02-04T04:05:57.232Z,12.00
2018-02-04T04:06:21.306Z,11.77
2018-02-04T04:06:45.098Z,11.48
2018-02-04T04:07:08.644Z,11.23
2018-02-04T04:07:32.383Z,11.60
2018-02-04T04:07:56.127Z,10.98
2018-02-04T04:08:19.867Z,11.07
2018-02-04T04:08:42.628Z,10.63
2018-02-04T04:09:06.361Z,11.20
2018-02-04T04:09:29.814Z,11.48
2018-02-04T04:09:53.279Z,11.80
2018-02-04T04:10:16.383Z,11.77
2018-02-04T04:10:40.201Z,11.95
2018-02-04T04:11:03.956Z,11.63
2018-02-04T04:11:27.713Z,11.98
2018-02-04T04:11:51.758Z,11.80
2018-02-04T04:12:15.556Z,11.40
2018-02-04T04:12:39.711Z,10.88
2018-02-04T04:13:03.488Z,10.90
2018-02-04T04:13:27.576Z,11.43
2018-02-04T04:13:51.319Z,11.00
2018-02-04T04:14:14.830Z,10.73
2018-02-04T04:14:38.663Z,10.98
2018-02-04T04:15:01.782Z,11.15
2018-02-04T04:15:25.383Z,11.00
2018-02-04T04:15:49.161Z,11.10
2018-02-04T04:16:13.174Z,11.20
2018-02-04T04:16:37.252Z,11.12
2018-02-04T04:17:01.016Z,11.12
2018-02-04T04:17:25.089Z,11.30
2018-02-04T04:17:48.545Z,11.50
2018-02-04T04:18:12.358Z,11.23
2018-02-04T04:18:36.113Z,10.90
2018-02-04T04:18:59.855Z,10.90
2018-02-04T04:19:23.979Z,11.35
2018-02-04T04:19:47.727Z,11.32
2018-02-04T04:20:11.982Z,11.60
2018-02-04T04:20:35.762Z,11.25
2018-02-04T04:20:59.820Z,10.80
2018-02-04T04:21:23.563Z,10.25
2018-02-04T04:21:47.644Z,10.20
2018-02-04T04:22:11.734Z,10.20
2018-02-04T04:22:35.566Z,9.90
2018-02-04T04:22:59.663Z,10.07
2018-02-04T04:23:23.488Z,10.60
2018-02-04T04:23:47.562Z,10.30
2018-02-04T04:24:11.313Z,10.60
2018-02-04T04:24:35.339Z,10.15
2018-02-04T04:24:59.363Z,10.20
2018-02-04T04:25:23.127Z,10.18
2018-02-04T04:25:46.225Z,10.40
2018-02-04T04:26:10.399Z,10.40
2018-02-04T04:26:34.131Z,10.15
2018-02-04T04:26:58.164Z,10.20
2018-02-04T04:27:21.940Z,10.00
2018-02-04T04:27:45.426Z,10.15
2018-02-04T04:28:09.167Z,9.30
2018-02-04T04:28:32.943Z,9.10
2018-02-04T04:28:56.953Z,9.93
2018-02-04T04:29:20.691Z,10.30
2018-02-04T04:29:44.172Z,10.23
2018-02-04T04:30:07.935Z,10.23
2018-02-04T04:30:31.749Z,9.85
2018-02-04T04:30:55.789Z,9.73
2018-02-04T04:31:18.843Z,9.50
2018-02-04T04:31:42.638Z,9.52
2018-02-04T04:32:06.090Z,9.80
2018-02-04T04:32:29.833Z,10.13
2018-02-04T04:32:53.606Z,10.00
2018-02-04T04:33:17.357Z,10.18
2018-02-04T04:33:40.871Z,9.70
2018-02-04T04:34:04.614Z,9.77
2018-02-04T04:34:28.383Z,10.18
2018-02-04T04:34:51.423Z,9.77
2018-02-04T04:35:15.161Z,9.00
2018-02-04T04:35:39.197Z,8.60
2018-02-04T04:36:03.227Z,8.30
2018-02-04T04:36:26.969Z,7.90
2018-02-04T04:36:50.409Z,7.35
2018-02-04T04:37:14.187Z,7.43
2018-02-04T04:37:37.571Z,8.15
2018-02-04T04:38:01.333Z,8.65
2018-02-04T04:38:25.075Z,8.77
2018-02-04T04:38:48.830Z,7.70
2018-02-04T04:39:12.182Z,7.30
2018-02-04T04:39:35.982Z,7.40
2018-02-04T04:39:59.850Z,7.60
2018-02-04T04:40:23.599Z,7.12
2018-02-04T04:40:47.048Z,7.68
2018-02-04T04:41:10.805Z,7.80
2018-02-04T04:41:34.532Z,7.62
2018-02-04T04:41:58.558Z,7.50
2018-02-04T04:42:22.383Z,7.70
2018-02-04T04:42:46.440Z,7.80
2018-02-04T04:43:10.467Z,8.00
2018-02-04T04:43:33.505Z,7.40
2018-02-04T04:43:57.295Z,7.18
2018-02-04T04:44:21.304Z,7.12
2018-02-04T04:44:45.050Z,7.22
2018-02-04T04:45:08.535Z,7.53
2018-02-04T04:45:32.283Z,7.10
2018-02-04T04:45:56.052Z,6.60
2018-02-04T04:46:20.057Z,6.97
2018-02-04T04:46:44.126Z,7.60
2018-02-04T04:47:07.883Z,7.72
2018-02-04T04:47:31.907Z,7.70
2018-02-04T04:47:55.924Z,7.28
2018-02-04T04:48:19.662Z,7.47
2018-02-04T04:48:43.422Z,7.62
2018-02-04T04:49:07.166Z,7.65
2018-02-04T04:49:30.904Z,7.30
2018-02-04T04:49:54.642Z,6.97
2018-02-04T04:50:18.665Z,7.18
2018-02-04T04:50:42.399Z,7.00
2018-02-04T04:51:06.155Z,6.57
2018-02-04T04:51:29.898Z,6.70
2018-02-04T04:51:53.457Z,6.85
2018-02-04T04:52:17.224Z,6.90
2018-02-04T04:52:40.949Z,6.85
2018-02-04T04:53:04.351Z,7.15
2018-02-04T04:53:28.366Z,7.18
2018-02-04T04:53:52.119Z,7.15
2018-02-04T04:54:15.677Z,6.60
2018-02-04T04:54:39.455Z,6.03
2018-02-04T04:55:03.173Z,6.35
2018-02-04T04:55:26.896Z,6.53
2018-02-04T04:55:50.614Z,6.80
2018-02-04T04:56:14.336Z,6.90
2018-02-04T04:56:37.876Z,6.85
2018-02-04T04:57:01.767Z,6.60
2018-02-04T04:57:25.238Z,6.60
2018-02-04T04:57:48.995Z,6.40
2018-02-04T04:58:12.749Z,6.75
2018-02-04T04:58:36.781Z,6.70
2018-02-04T04:59:00.514Z,6.40
2018-02-04T04:59:24.304Z,6.03
2018-02-04T04:59:47.884Z,6.18
2018-02-04T05:00:11.431Z,6.60
2018-02-04T05:00:34.884Z,6.65
2018-02-04T05:00:58.639Z,6.90
2018-02-04T05:01:22.364Z,6.60
2018-02-04T05:01:46.390Z,6.82
2018-02-04T05:02:09.827Z,6.13
2018-02-04T05:02:33.269Z,5.90
2018-02-04T05:02:57.268Z,6.12
2018-02-04T05:03:20.550Z,6.57
2018-02-04T05:03:44.351Z,6.50
2018-02-04T05:04:08.084Z,6.28
2018-02-04T05:04:32.023Z,6.40
2018-02-04T05:04:56.105Z,6.60
2018-02-04T05:05:19.876Z,6.35
2018-02-04T05:05:43.900Z,6.80
2018-02-04T05:06:07.990Z,6.80
2018-02-04T05:06:31.787Z,6.47
2018-02-04T05:06:55.787Z,5.95
2018-02-04T05:07:19.807Z,6.40
2018-02-04T05:07:43.535Z,6.45
2018-02-04T05:08:07.063Z,6.43
2018-02-04T05:08:30.792Z,6.78
2018-02-04T05:08:54.524Z,6.70
2018-02-04T05:09:18.661Z,6.70
2018-02-04T05:09:42.419Z,6.50
2018-02-04T05:10:06.428Z,6.80
2018-02-04T05:10:30.470Z,7.03
2018-02-04T05:10:54.211Z,6.93
2018-02-04T05:11:17.651Z,6.57
2018-02-04T05:11:41.594Z,5.87
2018-02-04T05:12:05.368Z,5.70
2018-02-04T05:12:29.147Z,5.85
2018-02-04T05:12:53.164Z,5.97
2018-02-04T05:13:17.171Z,6.57
2018-02-04T05:13:40.938Z,6.68
2018-02-04T05:14:04.372Z,6.50
2018-02-04T05:14:28.157Z,6.20
2018-02-04T05:14:51.901Z,6.55
2018-02-04T05:15:15.916Z,6.70
2018-02-04T05:15:39.388Z,6.27
2018-02-04T05:16:03.100Z,6.32
2018-02-04T05:16:26.815Z,6.45
2018-02-04T05:16:50.584Z,6.43
2018-02-04T05:17:14.094Z,6.30
2018-02-04T05:17:37.863Z,6.65
2018-02-04T05:18:01.314Z,6.70
2018-02-04T05:18:25.088Z,6.40
2018-02-04T05:18:48.868Z,6.30
2018-02-04T05:19:12.615Z,6.37
2018-02-04T05:19:36.375Z,6.50
2018-02-04T05:20:00.119Z,6.53
2018-02-04T05:20:23.923Z,6.43
2018-02-04T05:20:47.724Z,6.35
2018-02-04T05:21:11.449Z,6.00
2018-02-04T05:21:35.219Z,6.20
2018-02-04T05:21:58.960Z,5.90
2018-02-04T05:22:22.677Z,5.82
2018-02-04T05:22:46.476Z,5.82
2018-02-04T05:23:10.247Z,5.65
2018-02-04T05:23:33.969Z,5.60
2018-02-04T05:23:58.066Z,5.20
2018-02-04T05:24:21.837Z,4.93
2018-02-04T05:24:45.875Z,4.80
2018-02-04T05:25:09.647Z,4.97
2018-02-04T05:25:33.114Z,5.30
2018-02-04T05:25:56.847Z,5.40
2018-02-04T05:26:20.404Z,5.80
2018-02-04T05:26:43.648Z,5.53
2018-02-04T05:27:07.655Z,5.12
2018-02-04T05:27:31.242Z,4.68
2018-02-04T05:27:54.957Z,5.10
2018-02-04T05:28:18.691Z,5.05
2018-02-04T05:28:42.436Z,4.72
2018-02-04T05:29:06.499Z,4.75
2018-02-04T05:29:29.581Z,4.60
2018-02-04T05:29:53.315Z,4.50
2018-02-04T05:30:17.387Z,4.50
2018-02-04T05:30:41.135Z,4.60
2018-02-04T05:31:04.566Z,4.50
2018-02-04T05:31:28.549Z,4.50
2018-02-04T05:31:52.308Z,4.65
2018-02-04T05:32:16.039Z,4.68
2018-02-04T05:32:40.154Z,4.75
2018-02-04T05:33:03.962Z,4.70
2018-02-04T05:33:28.025Z,4.45
2018-02-04T05:33:51.772Z,4.47
2018-02-04T05:34:15.207Z,4.80
2018-02-04T05:34:38.951Z,4.60
2018-02-04T05:35:01.987Z,4.22
2018-02-04T05:35:25.756Z,3.90
2018-02-04T05:35:49.543Z,4.05
2018-02-04T05:36:13.000Z,4.20
2018-02-04T05:36:36.732Z,4.20
2018-02-04T05:37:00.456Z,3.92
2018-02-04T05:37:24.554Z,4.10
2018-02-04T05:37:48.430Z,4.10
2018-02-04T05:38:12.496Z,4.78
2018-02-04T05:38:36.231Z,4.60
2018-02-04T05:38:59.423Z,4.45
2018-02-04T05:39:23.151Z,4.25
2018-02-04T05:39:46.610Z,4.50
2018-02-04T05:40:10.061Z,4.80
2018-02-04T05:40:33.522Z,4.50
2018-02-04T05:40:56.588Z,4.40
2018-02-04T05:41:20.303Z,4.40
2018-02-04T05:41:44.044Z,4.20
2018-02-04T05:42:07.800Z,4.20
2018-02-04T05:42:31.363Z,4.20
2018-02-04T05:42:55.150Z,4.40
2018-02-04T05:43:18.881Z,4.25
2018-02-04T05:43:42.175Z,4.37
2018-02-04T05:44:05.979Z,4.20
2018-02-04T05:44:29.425Z,4.43
2018-02-04T05:44:53.144Z,4.57
2018-02-04T05:45:16.879Z,4.50
2018-02-04T05:45:40.630Z,4.60
2018-02-04T05:46:04.672Z,4.40
2018-02-04T05:46:28.405Z,4.25
2018-02-04T05:46:52.266Z,4.35
2018-02-04T05:47:15.804Z,4.78
2018-02-04T05:47:39.527Z,5.03
2018-02-04T05:48:03.315Z,4.80
2018-02-04T05:48:27.139Z,4.60
2018-02-04T05:48:50.671Z,4.72
2018-02-04T05:49:14.199Z,4.82
2018-02-04T05:49:37.361Z,4.80
2018-02-04T05:50:00.943Z,4.70
2018-02-04T05:50:24.698Z,4.85
2018-02-04T05:50:48.305Z,4.70
2018-02-04T05:51:11.346Z,4.78
2018-02-04T05:51:35.101Z,4.43
2018-02-04T05:51:58.856Z,4.20
2018-02-04T05:52:22.891Z,4.20